Time;durP1;ratioP1;P1;durP2;ratioP2;P2;SDS_P1;SDS_P2;PMS_P1;PMS_P2;Temp;Humidity;BMP_temperature;BMP_pressure;BME280_temperature;BME280_humidity;BME280_pressure;Samples;Min_cycle;Max_cycle;Signal;HPM_P1;HPM_P2
2022/02/16 00:01:29;;;;;;;2.70;1.85;;;2.50;99.90;;;;;;4989466;28;20041;-48
2022/02/16 00:03:57;;;;;;;4.10;2.42;;;2.50;99.90;;;;;;4990629;28;20030;-48
2022/02/16 00:06:23;;;;;;;2.17;1.90;;;2.40;99.90;;;;;;4992229;28;20034;-48
2022/02/16 00:08:48;;;;;;;2.47;1.98;;;2.40;99.90;;;;;;4985245;28;20036;-48
2022/02/16 00:11:14;;;;;;;1.73;1.58;;;2.40;99.90;;;;;;4991948;28;20045;-48
2022/02/16 00:13:40;;;;;;;2.08;1.90;;;2.40;99.90;;;;;;4990975;28;20482;-51
2022/02/16 00:16:08;;;;;;;2.65;2.35;;;2.40;99.90;;;;;;4990673;28;20085;-48
2022/02/16 00:18:38;;;;;;;4.82;2.70;;;2.40;99.90;;;;;;4986697;28;20076;-49
2022/02/16 00:21:05;;;;;;;2.10;1.90;;;2.40;99.90;;;;;;4989184;28;20116;-48
2022/02/16 00:23:31;;;;;;;1.63;1.50;;;2.40;99.90;;;;;;4992949;28;20026;-49
2022/02/16 00:25:59;;;;;;;1.85;1.67;;;2.40;99.90;;;;;;4990015;28;20057;-48
2022/02/16 00:28:26;;;;;;;1.80;1.70;;;2.40;99.90;;;;;;4992614;28;20030;-48
2022/02/16 00:30:52;;;;;;;1.80;1.42;;;2.40;99.90;;;;;;4980712;28;20394;-48
2022/02/16 00:33:18;;;;;;;1.67;1.58;;;2.30;99.90;;;;;;4990297;28;20413;-48
2022/02/16 00:35:43;;;;;;;2.88;2.63;;;2.30;99.90;;;;;;4992381;28;20035;-50
2022/02/16 00:38:09;;;;;;;1.50;1.40;;;2.30;99.90;;;;;;4992076;28;20037;-48
2022/02/16 00:40:35;;;;;;;1.58;1.30;;;2.30;99.90;;;;;;4990041;28;20030;-47
2022/02/16 00:43:00;;;;;;;2.10;1.90;;;2.30;99.90;;;;;;4978431;28;20038;-47
2022/02/16 00:45:26;;;;;;;1.85;1.75;;;2.30;99.90;;;;;;4990550;28;20026;-47
2022/02/16 00:47:52;;;;;;;1.98;1.88;;;2.40;99.90;;;;;;4989478;28;20463;-47
2022/02/16 00:50:18;;;;;;;1.70;1.60;;;2.30;99.90;;;;;;4985417;28;20038;-47
2022/02/16 00:52:44;;;;;;;1.98;1.80;;;2.40;99.90;;;;;;4987673;28;20035;-48
2022/02/16 00:55:10;;;;;;;2.08;1.90;;;2.40;99.90;;;;;;4991797;28;20104;-49
2022/02/16 00:57:36;;;;;;;2.92;1.70;;;2.40;99.90;;;;;;4992375;28;20105;-49
2022/02/16 01:00:04;;;;;;;1.70;1.60;;;2.40;99.90;;;;;;4987214;28;20254;-48
2022/02/16 01:02:30;;;;;;;1.90;1.80;;;2.40;99.90;;;;;;4988147;28;20172;-50
2022/02/16 01:04:55;;;;;;;2.70;1.92;;;2.30;99.90;;;;;;4990274;28;20092;-48
2022/02/16 01:07:21;;;;;;;1.80;1.70;;;2.40;99.90;;;;;;4991008;28;20034;-48
2022/02/16 01:09:47;;;;;;;1.30;1.20;;;2.30;99.90;;;;;;4992742;28;20043;-48
2022/02/16 01:12:12;;;;;;;1.80;1.70;;;2.30;99.90;;;;;;4987791;28;20672;-48
2022/02/16 01:14:39;;;;;;;1.55;1.42;;;2.30;99.90;;;;;;4990076;28;20030;-48
2022/02/16 01:17:05;;;;;;;2.20;1.50;;;2.30;99.90;;;;;;4992006;28;20022;-49
2022/02/16 01:19:31;;;;;;;2.22;1.55;;;2.30;99.90;;;;;;4985451;28;20061;-48
2022/02/16 01:21:57;;;;;;;1.55;1.50;;;2.30;99.90;;;;;;4986793;28;20035;-48
2022/02/16 01:24:22;;;;;;;1.50;1.40;;;2.30;99.90;;;;;;4991045;28;20414;-48
2022/02/16 01:26:48;;;;;;;1.80;1.50;;;2.30;99.90;;;;;;4995297;28;20042;-48
2022/02/16 01:29:14;;;;;;;1.52;1.42;;;2.30;99.90;;;;;;4988276;28;20066;-47
2022/02/16 01:31:39;;;;;;;2.10;1.65;;;2.30;99.90;;;;;;4979982;28;20039;-48
2022/02/16 01:34:05;;;;;;;1.92;1.80;;;2.30;99.90;;;;;;4984726;28;20387;-49
2022/02/16 01:36:31;;;;;;;1.75;1.38;;;2.30;99.90;;;;;;4986199;28;20125;-47
2022/02/16 01:38:56;;;;;;;4.18;1.58;;;2.30;99.90;;;;;;4991880;28;20584;-48
2022/02/16 01:41:22;;;;;;;3.00;1.25;;;2.30;99.90;;;;;;4986587;28;20023;-49
2022/02/16 01:43:53;;;;;;;1.77;1.67;;;2.30;99.90;;;;;;4982219;28;20041;-47
2022/02/16 01:46:20;;;;;;;1.50;1.33;;;2.30;99.90;;;;;;4990790;28;20114;-48
2022/02/16 01:48:46;;;;;;;1.55;1.50;;;2.30;99.90;;;;;;4991202;28;20050;-49
2022/02/16 01:51:12;;;;;;;3.33;1.30;;;2.30;99.90;;;;;;4988191;28;20344;-48
2022/02/16 01:53:39;;;;;;;6.05;1.60;;;2.20;99.90;;;;;;4985166;28;20154;-48
2022/02/16 01:56:05;;;;;;;1.50;1.40;;;2.30;99.90;;;;;;4989325;28;20542;-48
2022/02/16 01:58:35;;;;;;;1.73;1.40;;;2.30;99.90;;;;;;4991647;28;20029;-47
2022/02/16 02:01:03;;;;;;;1.17;1.17;;;2.30;99.90;;;;;;4989190;28;20047;-48
2022/02/16 02:03:30;;;;;;;1.08;1.08;;;2.30;99.90;;;;;;4988496;28;20030;-48
2022/02/16 02:05:55;;;;;;;1.70;1.35;;;2.30;99.90;;;;;;4988180;28;20053;-49
2022/02/16 02:08:22;;;;;;;1.65;1.50;;;2.30;99.90;;;;;;4977596;28;20035;-47
2022/02/16 02:10:48;;;;;;;1.20;1.20;;;2.30;99.90;;;;;;4988903;28;20034;-48
2022/02/16 02:13:18;;;;;;;1.30;1.30;;;2.30;99.90;;;;;;4988548;28;20034;-48
2022/02/16 02:15:43;;;;;;;2.00;1.20;;;2.30;99.90;;;;;;4988710;28;20026;-49
2022/02/16 02:18:16;;;;;;;1.17;1.17;;;2.30;99.90;;;;;;4980349;28;20027;-49
2022/02/16 02:20:43;;;;;;;1.38;1.27;;;2.30;99.90;;;;;;4984643;28;20082;-47
2022/02/16 02:23:10;;;;;;;1.20;1.10;;;2.30;99.90;;;;;;4991751;28;20033;-48
2022/02/16 02:25:51;;;;;;;1.05;1.00;;;2.30;99.90;;;;;;4992188;28;20698;-47
2022/02/16 02:28:24;;;;;;;1.08;1.08;;;2.30;99.90;;;;;;4989697;28;20030;-48
2022/02/16 02:30:49;;;;;;;1.75;1.20;;;2.40;99.90;;;;;;4988766;28;20027;-47
2022/02/16 02:33:16;;;;;;;1.17;0.98;;;2.40;99.90;;;;;;4992232;28;20034;-47
2022/02/16 02:35:42;;;;;;;3.00;1.48;;;2.40;99.90;;;;;;4991980;28;20037;-48
2022/02/16 02:38:08;;;;;;;3.58;1.40;;;2.40;99.90;;;;;;4992453;28;20030;-47
2022/02/16 02:40:34;;;;;;;3.28;1.25;;;2.40;99.90;;;;;;4990919;28;20550;-47
2022/02/16 02:43:00;;;;;;;1.00;1.00;;;2.40;99.90;;;;;;4991380;28;20036;-47
2022/02/16 02:45:26;;;;;;;1.20;1.10;;;2.40;99.90;;;;;;4992954;28;20434;-47
2022/02/16 02:47:51;;;;;;;1.25;1.15;;;2.50;99.90;;;;;;4990990;28;20032;-47
2022/02/16 02:50:17;;;;;;;1.13;1.10;;;2.50;99.90;;;;;;4992992;28;20037;-47
2022/02/16 02:52:43;;;;;;;1.52;1.42;;;2.50;99.90;;;;;;4990502;28;20033;-47
2022/02/16 02:55:11;;;;;;;1.88;1.52;;;2.50;99.90;;;;;;4992208;28;20033;-47
2022/02/16 02:57:37;;;;;;;1.77;1.30;;;2.50;99.90;;;;;;4988830;28;20026;-50
2022/02/16 03:00:05;;;;;;;1.20;1.20;;;2.50;99.90;;;;;;4986888;28;20827;-48
2022/02/16 03:02:31;;;;;;;1.48;1.20;;;2.50;99.90;;;;;;4987092;28;20038;-47
2022/02/16 03:04:57;;;;;;;1.30;1.20;;;2.50;99.90;;;;;;4990506;28;20054;-47
2022/02/16 03:07:22;;;;;;;1.48;1.40;;;2.60;99.90;;;;;;4994652;28;20058;-48
2022/02/16 03:09:48;;;;;;;1.63;1.30;;;2.60;99.90;;;;;;4994430;28;20033;-48
2022/02/16 03:12:13;;;;;;;1.17;1.08;;;2.60;99.90;;;;;;4993223;28;20122;-47
2022/02/16 03:14:39;;;;;;;1.20;1.20;;;2.60;99.90;;;;;;4991006;28;20014;-47
2022/02/16 03:17:05;;;;;;;1.40;1.30;;;2.60;99.90;;;;;;4991760;28;20407;-47
2022/02/16 03:19:30;;;;;;;1.15;1.15;;;2.60;99.90;;;;;;4988540;28;20030;-49
2022/02/16 03:21:56;;;;;;;1.25;1.15;;;2.70;99.90;;;;;;4990658;28;20030;-47
2022/02/16 03:24:22;;;;;;;1.20;1.10;;;2.70;99.90;;;;;;4989188;28;20026;-48
2022/02/16 03:26:48;;;;;;;1.20;1.20;;;2.70;99.90;;;;;;5000436;28;20406;-48
2022/02/16 03:29:14;;;;;;;1.05;1.05;;;2.70;99.90;;;;;;4991439;28;20034;-47
2022/02/16 03:31:39;;;;;;;1.20;1.10;;;2.70;99.90;;;;;;4991262;28;20446;-47
2022/02/16 03:34:05;;;;;;;1.00;1.00;;;2.70;99.90;;;;;;4991212;28;20027;-47
2022/02/16 03:36:31;;;;;;;1.10;0.95;;;2.70;99.90;;;;;;4987075;28;20039;-49
2022/02/16 03:38:57;;;;;;;1.10;1.10;;;2.70;99.90;;;;;;4982623;28;20053;-47
2022/02/16 03:41:23;;;;;;;1.10;1.00;;;2.70;99.90;;;;;;4984759;28;20656;-48
2022/02/16 03:43:49;;;;;;;1.13;1.02;;;2.70;99.90;;;;;;4986623;28;20041;-48
2022/02/16 03:46:14;;;;;;;1.88;1.10;;;2.70;99.90;;;;;;4986172;28;20050;-49
2022/02/16 03:48:40;;;;;;;1.35;1.27;;;2.70;99.90;;;;;;4987419;28;20410;-49
2022/02/16 03:51:06;;;;;;;1.55;1.45;;;2.70;99.90;;;;;;4990909;28;20097;-48
2022/02/16 03:53:31;;;;;;;3.25;1.20;;;2.70;99.90;;;;;;4989076;28;20056;-48
2022/02/16 03:55:57;;;;;;;1.30;1.30;;;2.70;99.90;;;;;;4991839;28;20177;-48
2022/02/16 03:58:23;;;;;;;1.27;1.27;;;2.70;99.90;;;;;;4993085;28;20038;-48
2022/02/16 04:00:49;;;;;;;1.23;1.15;;;2.80;99.90;;;;;;4984842;28;20101;-48
2022/02/16 04:03:15;;;;;;;1.70;1.60;;;2.80;99.90;;;;;;4987192;28;20036;-50
2022/02/16 04:05:42;;;;;;;1.63;1.52;;;2.80;99.90;;;;;;4985286;28;20577;-49
2022/02/16 04:08:09;;;;;;;2.38;1.40;;;2.80;99.90;;;;;;4981292;28;20026;-48
2022/02/16 04:10:35;;;;;;;1.35;1.30;;;2.80;99.90;;;;;;4981094;28;20109;-48
2022/02/16 04:13:01;;;;;;;1.30;1.13;;;2.80;99.90;;;;;;4992070;28;20779;-48
2022/02/16 04:15:26;;;;;;;1.10;1.10;;;2.80;99.90;;;;;;4983985;28;20321;-49
2022/02/16 04:17:52;;;;;;;2.42;1.33;;;2.80;99.90;;;;;;5001321;28;20054;-47
2022/02/16 04:20:21;;;;;;;1.70;1.60;;;2.80;99.90;;;;;;4988014;28;20026;-48
2022/02/16 04:22:47;;;;;;;1.33;1.23;;;2.80;99.90;;;;;;5006645;28;20064;-48
2022/02/16 04:25:14;;;;;;;1.10;1.10;;;2.80;99.90;;;;;;4991621;28;20521;-48
2022/02/16 04:27:40;;;;;;;1.88;1.10;;;2.80;99.90;;;;;;4997450;28;20035;-48
2022/02/16 04:30:08;;;;;;;3.03;1.30;;;2.80;99.90;;;;;;4985638;28;20022;-50
2022/02/16 04:32:34;;;;;;;1.30;1.20;;;2.90;99.90;;;;;;4982380;28;20037;-48
2022/02/16 04:35:00;;;;;;;1.85;1.75;;;2.90;99.90;;;;;;4984289;28;20483;-48
2022/02/16 04:37:27;;;;;;;1.58;1.48;;;2.90;99.90;;;;;;4992736;28;20026;-48
2022/02/16 04:39:52;;;;;;;1.00;1.00;;;2.90;99.90;;;;;;4982481;28;20030;-49
2022/02/16 04:42:18;;;;;;;0.98;0.98;;;2.90;99.90;;;;;;4991730;28;20038;-48
2022/02/16 04:44:43;;;;;;;1.73;1.10;;;2.90;99.90;;;;;;4985537;28;20026;-49
2022/02/16 04:47:09;;;;;;;1.13;1.10;;;2.90;99.90;;;;;;4991966;28;20030;-48
2022/02/16 04:49:35;;;;;;;1.00;1.00;;;2.90;99.90;;;;;;4984671;28;20039;-48
2022/02/16 04:52:02;;;;;;;1.00;1.00;;;2.90;99.90;;;;;;4998630;28;20033;-49
2022/02/16 04:54:28;;;;;;;0.80;0.80;;;2.90;99.90;;;;;;4990408;28;20039;-48
2022/02/16 04:56:53;;;;;;;1.92;1.30;;;3.00;99.90;;;;;;4991881;28;20105;-48
2022/02/16 04:59:19;;;;;;;1.42;1.30;;;2.90;99.90;;;;;;4989696;28;20096;-48
2022/02/16 05:01:44;;;;;;;1.20;1.10;;;2.90;99.90;;;;;;4989293;28;20608;-48
2022/02/16 05:04:10;;;;;;;1.00;1.00;;;2.90;99.90;;;;;;4983780;28;20169;-48
2022/02/16 05:06:37;;;;;;;1.50;1.05;;;3.00;99.90;;;;;;4988853;28;20026;-48
2022/02/16 05:09:06;;;;;;;1.15;1.15;;;3.00;99.90;;;;;;4990713;28;20038;-50
2022/02/16 05:11:32;;;;;;;;;;;3.00;99.90;;;;;;4980369;28;20027;-50
2022/02/16 05:13:58;;;;;;;1.30;1.20;;;2.90;99.90;;;;;;4978226;28;19917;-48
2022/02/16 05:16:23;;;;;;;0.90;0.90;;;3.00;99.90;;;;;;4990065;28;20066;-48
2022/02/16 05:18:49;;;;;;;1.50;1.30;;;3.00;99.90;;;;;;4986674;28;20038;-48
2022/02/16 05:21:15;;;;;;;1.00;1.00;;;3.00;99.90;;;;;;4977890;28;20026;-48
2022/02/16 05:23:42;;;;;;;1.08;1.08;;;3.00;99.90;;;;;;4990016;28;20042;-48
2022/02/16 05:26:07;;;;;;;1.02;1.02;;;3.00;99.90;;;;;;4986238;28;20034;-48
2022/02/16 05:28:33;;;;;;;1.00;1.00;;;3.00;99.90;;;;;;4978783;28;20037;-48
2022/02/16 05:30:59;;;;;;;0.88;0.88;;;3.00;99.90;;;;;;4986088;28;20383;-48
2022/02/16 05:33:26;;;;;;;2.20;1.20;;;3.00;99.90;;;;;;4989077;28;20026;-48
2022/02/16 05:35:51;;;;;;;2.75;1.27;;;3.00;99.90;;;;;;4987098;28;20153;-48
2022/02/16 05:38:17;;;;;;;1.20;1.10;;;3.00;99.90;;;;;;4988763;28;20188;-48
2022/02/16 05:40:43;;;;;;;1.10;1.08;;;3.10;99.90;;;;;;5006112;28;20030;-48
2022/02/16 05:43:12;;;;;;;1.35;1.30;;;3.10;99.90;;;;;;4986091;28;20475;-48
2022/02/16 05:45:37;;;;;;;0.75;0.75;;;3.10;99.90;;;;;;4989852;28;20042;-48
2022/02/16 05:48:05;;;;;;;1.75;1.00;;;3.10;99.90;;;;;;4991175;28;20045;-48
2022/02/16 05:50:31;;;;;;;1.10;1.05;;;3.10;99.90;;;;;;4989626;28;20022;-48
2022/02/16 05:52:56;;;;;;;1.15;1.02;;;3.20;99.90;;;;;;4989893;28;20466;-48
2022/02/16 05:55:22;;;;;;;1.10;1.10;;;3.10;99.90;;;;;;4988959;28;20084;-48
2022/02/16 05:57:47;;;;;;;1.10;1.10;;;3.20;99.90;;;;;;4987472;28;20038;-48
2022/02/16 06:00:14;;;;;;;0.82;0.80;;;3.20;99.90;;;;;;4984431;28;20029;-48
2022/02/16 06:02:40;;;;;;;0.93;0.93;;;3.20;99.90;;;;;;4980817;28;20052;-48
2022/02/16 06:05:06;;;;;;;1.00;1.00;;;3.20;99.90;;;;;;4983621;28;20038;-47
2022/02/16 06:07:32;;;;;;;1.50;1.30;;;3.30;99.90;;;;;;4983632;28;20461;-47
2022/02/16 06:09:58;;;;;;;0.90;0.90;;;3.30;99.90;;;;;;4983179;28;20818;-48
2022/02/16 06:12:23;;;;;;;0.80;0.80;;;3.30;99.90;;;;;;4983566;28;20425;-48
2022/02/16 06:14:49;;;;;;;1.20;1.20;;;3.30;99.90;;;;;;4981936;28;20065;-48
2022/02/16 06:17:15;;;;;;;0.90;0.90;;;3.30;99.90;;;;;;4981952;28;20394;-47
2022/02/16 06:19:40;;;;;;;0.85;0.82;;;3.40;99.90;;;;;;4982908;28;20034;-47
2022/02/16 06:22:06;;;;;;;1.92;1.20;;;3.40;99.90;;;;;;4982831;28;20023;-47
2022/02/16 06:24:32;;;;;;;1.25;1.25;;;3.40;99.90;;;;;;4988493;28;20052;-48
2022/02/16 06:26:57;;;;;;;1.10;1.10;;;3.40;99.90;;;;;;4987380;28;20096;-48
2022/02/16 06:29:23;;;;;;;1.17;1.10;;;3.40;99.90;;;;;;4991038;28;20161;-48
2022/02/16 06:31:49;;;;;;;1.00;1.00;;;3.40;99.90;;;;;;4985122;28;20392;-48
2022/02/16 06:34:14;;;;;;;1.00;0.90;;;3.40;99.90;;;;;;4987520;28;20027;-48
2022/02/16 06:36:40;;;;;;;0.80;0.80;;;3.50;99.90;;;;;;4987652;28;20033;-48
2022/02/16 06:39:05;;;;;;;1.00;1.00;;;3.40;99.90;;;;;;4989970;28;20030;-49
2022/02/16 06:41:31;;;;;;;1.40;1.30;;;3.50;99.90;;;;;;4988819;28;20030;-48
2022/02/16 06:43:57;;;;;;;1.10;1.00;;;3.60;99.90;;;;;;4989633;28;20462;-48
2022/02/16 06:46:23;;;;;;;1.10;0.95;;;3.60;99.90;;;;;;4989209;28;20033;-49
2022/02/16 06:48:48;;;;;;;1.10;1.00;;;3.60;99.90;;;;;;4982455;28;20057;-48
2022/02/16 06:51:17;;;;;;;1.25;1.02;;;3.60;99.90;;;;;;4993317;28;20108;-48
2022/02/16 06:53:55;;;;;;;0.80;0.80;;;3.60;99.90;;;;;;4983431;28;20090;-48
2022/02/16 06:56:20;;;;;;;1.25;1.20;;;3.60;99.90;;;;;;4990271;28;20045;-49
2022/02/16 06:58:46;;;;;;;1.30;1.20;;;3.70;99.90;;;;;;4983709;28;20030;-48
2022/02/16 07:01:12;;;;;;;1.13;1.13;;;3.70;99.90;;;;;;4986443;28;20495;-48
2022/02/16 07:03:38;;;;;;;0.90;0.90;;;3.70;99.90;;;;;;4985128;28;20440;-48
2022/02/16 07:06:03;;;;;;;1.02;1.00;;;3.70;99.90;;;;;;4983717;28;20038;-48
2022/02/16 07:08:29;;;;;;;0.80;0.80;;;3.70;99.90;;;;;;4984351;28;20027;-48
2022/02/16 07:10:54;;;;;;;0.90;0.90;;;3.70;99.90;;;;;;4991180;28;20532;-49
2022/02/16 07:13:21;;;;;;;1.38;1.05;;;3.80;99.90;;;;;;4992913;28;20030;-48
2022/02/16 07:15:46;;;;;;;1.63;0.90;;;3.70;99.90;;;;;;4985230;28;20034;-49
2022/02/16 07:18:12;;;;;;;0.90;0.90;;;3.70;99.90;;;;;;4987537;28;20400;-49
2022/02/16 07:20:38;;;;;;;0.82;0.82;;;3.80;99.90;;;;;;4993474;28;20101;-48
2022/02/16 07:23:03;;;;;;;0.85;0.85;;;3.80;99.90;;;;;;4989521;28;20026;-49
2022/02/16 07:25:29;;;;;;;0.80;0.80;;;3.80;99.90;;;;;;4985555;28;20030;-47
2022/02/16 07:27:54;;;;;;;0.80;0.80;;;3.80;99.90;;;;;;4990041;28;20034;-48
2022/02/16 07:30:20;;;;;;;0.93;0.93;;;3.90;99.90;;;;;;5000030;28;20557;-48
2022/02/16 07:32:46;;;;;;;1.10;1.10;;;3.90;99.90;;;;;;4992655;28;20073;-50
2022/02/16 07:35:13;;;;;;;1.55;1.13;;;3.90;99.90;;;;;;4989379;28;20116;-49
2022/02/16 07:37:39;;;;;;;0.93;0.93;;;3.90;99.90;;;;;;4989839;28;20026;-48
2022/02/16 07:40:05;;;;;;;1.38;0.98;;;4.00;99.90;;;;;;4988986;28;20052;-48
2022/02/16 07:42:32;;;;;;;0.93;0.93;;;4.00;99.90;;;;;;4990550;28;20487;-48
2022/02/16 07:44:57;;;;;;;0.70;0.70;;;4.00;99.90;;;;;;4990315;28;20581;-48
2022/02/16 07:47:24;;;;;;;0.90;0.90;;;4.00;99.90;;;;;;4991853;28;20137;-50
2022/02/16 07:49:50;;;;;;;2.80;0.95;;;4.10;99.90;;;;;;4990845;28;20074;-48
2022/02/16 07:52:15;;;;;;;1.00;1.00;;;4.10;99.90;;;;;;4990742;28;20053;-47
2022/02/16 07:54:42;;;;;;;0.90;0.90;;;4.10;99.90;;;;;;4990225;28;20026;-48
2022/02/16 07:57:07;;;;;;;1.00;1.00;;;4.20;99.90;;;;;;4991553;28;20062;-48
2022/02/16 07:59:35;;;;;;;1.45;0.90;;;4.20;99.90;;;;;;4990459;28;20065;-48
2022/02/16 08:02:03;;;;;;;0.93;0.93;;;4.30;99.90;;;;;;4990023;28;20117;-48
2022/02/16 08:04:30;;;;;;;0.95;0.95;;;4.30;99.90;;;;;;5003874;28;20574;-48
2022/02/16 08:06:56;;;;;;;0.80;0.80;;;4.30;99.90;;;;;;4984272;28;20049;-47
2022/02/16 08:09:22;;;;;;;1.75;0.90;;;4.30;99.90;;;;;;4991273;28;20454;-47
2022/02/16 08:11:49;;;;;;;0.90;0.90;;;4.30;99.90;;;;;;4989715;28;20447;-47
2022/02/16 08:14:15;;;;;;;1.35;0.90;;;4.40;99.90;;;;;;4990144;28;20118;-47
2022/02/16 08:16:41;;;;;;;0.90;0.90;;;4.40;99.90;;;;;;4990332;28;20038;-47
2022/02/16 08:19:08;;;;;;;0.95;0.95;;;4.40;99.90;;;;;;4988469;28;20038;-48
2022/02/16 08:21:35;;;;;;;0.70;0.70;;;4.50;99.90;;;;;;4988056;28;20039;-48
2022/02/16 08:24:01;;;;;;;0.88;0.88;;;4.50;99.90;;;;;;4987820;28;20030;-47
2022/02/16 08:26:27;;;;;;;0.88;0.88;;;4.60;99.90;;;;;;4990592;28;20471;-47
2022/02/16 08:28:53;;;;;;;1.60;1.00;;;4.50;99.90;;;;;;4987743;28;20092;-48
2022/02/16 08:31:19;;;;;;;0.75;0.75;;;4.60;99.90;;;;;;4986884;28;20125;-50
2022/02/16 08:33:47;;;;;;;0.98;0.90;;;4.60;99.90;;;;;;4987812;28;20057;-51
2022/02/16 08:36:13;;;;;;;1.10;1.10;;;4.60;99.90;;;;;;4986854;28;20026;-49
2022/02/16 08:38:39;;;;;;;1.13;1.13;;;4.70;99.90;;;;;;4986358;28;20450;-48
2022/02/16 08:41:06;;;;;;;1.42;0.85;;;4.70;99.90;;;;;;4982569;28;20439;-49
2022/02/16 08:43:32;;;;;;;0.90;0.90;;;4.80;99.90;;;;;;4987388;28;20030;-49
2022/02/16 08:45:58;;;;;;;0.73;0.73;;;4.80;99.90;;;;;;4986889;28;20030;-48
2022/02/16 08:48:24;;;;;;;1.00;0.93;;;4.80;99.90;;;;;;4986371;28;20053;-48
2022/02/16 08:50:52;;;;;;;0.77;0.77;;;4.90;99.90;;;;;;4986051;28;20046;-49
2022/02/16 08:53:17;;;;;;;0.80;0.80;;;4.90;99.90;;;;;;4982659;28;20133;-48
2022/02/16 08:55:43;;;;;;;0.70;0.70;;;4.90;99.90;;;;;;4985506;28;20043;-50
2022/02/16 08:58:09;;;;;;;1.10;1.00;;;5.00;99.90;;;;;;4989496;28;20038;-48
2022/02/16 09:00:36;;;;;;;1.15;0.98;;;5.00;99.90;;;;;;4987594;28;20030;-48
2022/02/16 09:03:02;;;;;;;0.70;0.70;;;5.10;99.90;;;;;;4985191;28;20066;-48
2022/02/16 09:05:28;;;;;;;1.00;1.00;;;5.10;99.90;;;;;;4989957;28;20069;-48
2022/02/16 09:07:53;;;;;;;0.70;0.70;;;5.20;99.90;;;;;;4998283;28;20544;-48
2022/02/16 09:10:19;;;;;;;0.90;0.90;;;5.20;99.90;;;;;;4996929;28;20026;-48
2022/02/16 09:12:45;;;;;;;1.70;0.98;;;5.20;99.90;;;;;;5004253;28;20064;-48
2022/02/16 09:15:11;;;;;;;0.80;0.80;;;5.30;99.90;;;;;;4987594;28;20076;-49
2022/02/16 09:17:37;;;;;;;1.65;0.80;;;5.30;99.90;;;;;;4988817;28;20101;-50
2022/02/16 09:20:03;;;;;;;1.90;0.77;;;5.40;99.90;;;;;;4989257;28;20027;-49
2022/02/16 09:22:29;;;;;;;0.98;0.70;;;5.40;99.90;;;;;;4987585;28;20033;-48
2022/02/16 09:24:55;;;;;;;0.60;0.60;;;5.50;99.90;;;;;;4987150;28;20018;-50
2022/02/16 09:27:21;;;;;;;0.80;0.80;;;5.50;99.90;;;;;;4989445;28;20019;-48
2022/02/16 09:29:47;;;;;;;0.60;0.60;;;5.50;99.90;;;;;;4986281;28;20035;-48
2022/02/16 09:32:13;;;;;;;0.70;0.70;;;5.60;99.90;;;;;;4982956;28;20034;-48
2022/02/16 09:34:39;;;;;;;0.70;0.70;;;5.70;99.90;;;;;;4987858;28;20038;-48
2022/02/16 09:37:05;;;;;;;0.68;0.68;;;5.80;99.90;;;;;;4985755;28;20411;-49
2022/02/16 09:39:32;;;;;;;0.65;0.65;;;5.80;99.90;;;;;;4989598;28;20030;-48
2022/02/16 09:41:58;;;;;;;0.60;0.60;;;5.90;99.90;;;;;;4985656;28;20046;-47
2022/02/16 09:44:47;;;;;;;0.70;0.70;;;6.00;99.90;;;;;;4989922;28;20026;-48
2022/02/16 09:47:13;;;;;;;0.60;0.60;;;6.00;99.90;;;;;;4991125;28;20336;-48
2022/02/16 09:49:40;;;;;;;1.42;0.68;;;6.10;99.90;;;;;;4988015;28;20069;-49
2022/02/16 09:52:10;;;;;;;0.60;0.60;;;6.20;99.90;;;;;;4987593;28;20034;-47
2022/02/16 09:54:37;;;;;;;0.60;0.60;;;6.20;99.90;;;;;;4980113;28;20031;-48
2022/02/16 09:57:03;;;;;;;0.70;0.70;;;6.30;99.90;;;;;;4987326;28;20842;-49
2022/02/16 09:59:29;;;;;;;0.85;0.85;;;6.20;99.90;;;;;;4989349;28;20034;-48
2022/02/16 10:01:59;;;;;;;0.50;0.50;;;6.20;99.90;;;;;;4988451;28;20043;-48
2022/02/16 10:04:26;;;;;;;0.60;0.60;;;6.30;99.90;;;;;;4987483;28;20578;-47
2022/02/16 10:06:54;;;;;;;0.70;0.70;;;6.30;99.90;;;;;;4988262;28;20504;-48
2022/02/16 10:09:31;;;;;;;0.88;0.88;;;6.30;99.90;;;;;;4989311;28;20025;-49
2022/02/16 10:11:59;;;;;;;0.75;0.60;;;6.30;99.90;;;;;;4987735;28;20057;-48
2022/02/16 10:14:30;;;;;;;0.80;0.80;;;6.40;99.90;;;;;;4986483;28;20035;-48
2022/02/16 10:17:02;;;;;;;1.00;0.90;;;6.40;99.90;;;;;;4986121;28;20125;-48
2022/02/16 10:19:48;;;;;;;1.10;0.80;;;6.40;99.90;;;;;;4986066;28;20042;-48
2022/02/16 10:22:14;;;;;;;1.17;0.63;;;6.40;99.90;;;;;;4985373;28;20042;-48
2022/02/16 10:24:39;;;;;;;0.77;0.77;;;6.40;99.90;;;;;;4988126;28;20080;-48
2022/02/16 10:27:05;;;;;;;1.30;0.80;;;6.50;99.90;;;;;;4986262;28;20109;-48
2022/02/16 10:29:34;;;;;;;0.82;0.82;;;6.50;99.90;;;;;;4989037;28;20026;-49
2022/02/16 10:32:01;;;;;;;0.70;0.70;;;6.50;99.90;;;;;;4987063;28;20175;-48
2022/02/16 10:34:49;;;;;;;0.80;0.73;;;6.50;99.90;;;;;;4984961;28;20023;-48
2022/02/16 10:37:16;;;;;;;1.17;0.80;;;6.50;99.90;;;;;;4989159;28;20034;-48
2022/02/16 10:39:57;;;;;;;0.80;0.80;;;6.50;99.90;;;;;;4988051;28;20450;-49
2022/02/16 10:42:22;;;;;;;0.85;0.80;;;6.50;99.90;;;;;;4988260;28;20023;-49
2022/02/16 10:45:06;;;;;;;1.60;0.80;;;6.50;99.90;;;;;;4987081;28;20116;-48
2022/02/16 10:47:52;;;;;;;0.75;0.75;;;6.50;99.90;;;;;;4990011;28;20134;-48
2022/02/16 10:50:18;;;;;;;0.82;0.82;;;6.50;99.90;;;;;;4987893;28;20038;-47
2022/02/16 10:52:59;;;;;;;0.70;0.70;;;6.60;99.90;;;;;;4992883;28;20093;-48
2022/02/16 10:55:41;;;;;;;0.60;0.60;;;6.50;99.90;;;;;;4984339;28;20029;-50
2022/02/16 10:58:09;;;;;;;0.50;0.50;;;6.60;99.90;;;;;;4993007;28;20034;-48
2022/02/16 11:00:38;;;;;;;1.77;1.67;;;6.60;99.90;;;;;;4990873;28;20042;-48
2022/02/16 11:03:06;;;;;;;1.30;0.90;;;6.60;99.90;;;;;;4987952;28;20054;-49
2022/02/16 11:05:35;;;;;;;2.03;0.80;;;6.60;99.90;;;;;;4989697;28;20071;-48
2022/02/16 11:08:03;;;;;;;0.70;0.70;;;6.60;99.90;;;;;;4990444;28;20033;-47
2022/02/16 11:10:29;;;;;;;0.70;0.70;;;6.60;99.90;;;;;;4993653;28;20026;-49
2022/02/16 11:12:57;;;;;;;0.60;0.60;;;6.60;99.90;;;;;;5007962;28;20030;-49
2022/02/16 11:15:24;;;;;;;1.08;0.80;;;6.70;99.90;;;;;;4984118;28;20434;-49
2022/02/16 11:17:50;;;;;;;0.80;0.80;;;6.70;99.90;;;;;;4987944;28;20121;-48
2022/02/16 11:20:23;;;;;;;1.00;0.80;;;6.70;99.90;;;;;;4985471;28;20479;-49
2022/02/16 11:22:54;;;;;;;1.45;0.77;;;6.70;99.90;;;;;;4990767;28;20033;-48
2022/02/16 11:25:32;;;;;;;0.95;0.73;;;6.80;99.90;;;;;;4991820;28;20069;-48
2022/02/16 11:28:11;;;;;;;0.73;0.73;;;6.80;99.90;;;;;;4975327;28;20079;-48
2022/02/16 11:30:46;;;;;;;;;;;6.80;99.90;;;;;;5000504;28;20096;-48
2022/02/16 11:33:25;;;;;;;0.85;0.85;;;6.90;99.90;;;;;;4979472;28;19971;-47
2022/02/16 11:35:56;;;;;;;1.20;1.20;;;6.90;99.90;;;;;;4988840;28;20031;-48
2022/02/16 11:38:37;;;;;;;0.63;0.63;;;6.90;99.90;;;;;;4993498;28;20034;-48
2022/02/16 11:41:25;;;;;;;0.60;0.60;;;6.90;99.90;;;;;;4987632;28;20026;-48
2022/02/16 11:44:00;;;;;;;1.05;1.05;;;6.90;99.90;;;;;;4989250;28;20026;-48
2022/02/16 11:46:47;;;;;;;0.60;0.60;;;6.90;99.90;;;;;;4992122;28;20062;-48
2022/02/16 11:49:25;;;;;;;0.65;0.65;;;6.90;99.90;;;;;;4988315;28;20050;-48
2022/02/16 11:51:52;;;;;;;0.63;0.63;;;7.10;99.90;;;;;;4981493;28;20081;-48
2022/02/16 11:54:40;;;;;;;0.57;0.57;;;7.20;99.90;;;;;;4989303;28;20037;-48
2022/02/16 11:57:30;;;;;;;0.50;0.50;;;7.30;99.90;;;;;;4980956;28;20553;-48
2022/02/16 12:00:01;;;;;;;0.70;0.70;;;7.40;99.90;;;;;;4985834;28;20030;-48
2022/02/16 12:02:27;;;;;;;4.95;0.80;;;7.40;99.90;;;;;;4992691;28;20038;-48
2022/02/16 12:04:57;;;;;;;0.70;0.70;;;7.40;99.90;;;;;;4986253;28;20046;-48
2022/02/16 12:07:28;;;;;;;0.82;0.70;;;7.50;99.90;;;;;;4991661;28;20041;-48
2022/02/16 12:10:13;;;;;;;0.80;0.80;;;7.60;99.90;;;;;;4992751;28;20062;-48
2022/02/16 12:12:39;;;;;;;1.48;1.02;;;7.60;99.90;;;;;;4999979;28;20040;-48
2022/02/16 12:15:06;;;;;;;0.70;0.70;;;7.70;99.90;;;;;;4994451;28;20034;-49
2022/02/16 12:17:33;;;;;;;0.60;0.60;;;7.70;99.90;;;;;;4992601;28;20014;-47
2022/02/16 12:20:01;;;;;;;0.60;0.60;;;7.80;99.90;;;;;;4991186;28;20101;-47
2022/02/16 12:22:27;;;;;;;0.60;0.60;;;7.80;99.90;;;;;;4989059;28;20077;-47
2022/02/16 12:24:52;;;;;;;0.57;0.57;;;7.90;99.90;;;;;;4990231;28;20158;-47
2022/02/16 12:27:22;;;;;;;0.60;0.60;;;7.80;99.90;;;;;;4992360;28;20625;-47
2022/02/16 12:29:48;;;;;;;0.63;0.63;;;7.80;99.90;;;;;;4995064;28;20048;-49
2022/02/16 12:32:19;;;;;;;0.80;0.80;;;7.80;99.90;;;;;;4992609;28;20129;-48
2022/02/16 12:34:46;;;;;;;0.52;0.52;;;7.80;99.90;;;;;;4991972;28;20033;-47
2022/02/16 12:37:15;;;;;;;0.50;0.50;;;7.70;99.90;;;;;;4987417;28;20478;-47
2022/02/16 12:39:51;;;;;;;0.63;0.63;;;7.80;99.90;;;;;;4989641;28;20027;-49
2022/02/16 12:42:17;;;;;;;0.63;0.63;;;7.80;99.90;;;;;;4992438;28;20022;-49
2022/02/16 12:44:43;;;;;;;0.50;0.50;;;7.70;99.90;;;;;;4992072;28;20045;-48
2022/02/16 12:47:11;;;;;;;0.60;0.60;;;7.70;99.90;;;;;;4987197;28;20031;-49
2022/02/16 12:49:36;;;;;;;0.90;0.60;;;7.70;99.90;;;;;;4987723;28;20043;-47
2022/02/16 12:52:04;;;;;;;0.60;0.60;;;7.70;99.90;;;;;;4992472;28;20041;-49
2022/02/16 12:54:32;;;;;;;0.90;0.70;;;7.70;99.90;;;;;;4991255;28;20030;-48
2022/02/16 12:57:03;;;;;;;0.85;0.85;;;7.80;99.90;;;;;;4992605;28;20030;-50
2022/02/16 12:59:33;;;;;;;0.60;0.60;;;7.80;99.90;;;;;;4988954;28;20033;-48